Bolingbrook, Illinois
Current Conditions -  °F | °C
As of 11:35 PM on Friday 24 Oct 2014 (Local Time) from KLOT Reporting Station
Overcast Overcast  
Wind Chill: 57°   Ceiling: 3800
Heat Index: 57°   Visibility: 10mi
Dew Point: 51°   Wind: 6mph
Humidity: 79%   Direction: 210°SSW
Pressure: 29.94"   Gusts: NA
Location:  41.7°N, 88.08°W
Report Text: KLOT 250435Z AUTO 21005KT 10SM OVC038 14/11 A2994 RMK AO2 T01400105
Loading
Personal Weather Stations






























Interactive Weather Map
Tropical Storm Tracking
New forecast layout! Learn more

10-Day Weather Forecast

Advertisements
Track Severe Weather on mobile